Time;durP1;ratioP1;P1;durP2;ratioP2;P2;SDS_P1;SDS_P2;PMS_P1;PMS_P2;Temp;Humidity;BMP_temperature;BMP_pressure;BME280_temperature;BME280_humidity;BME280_pressure;Samples;Min_cycle;Max_cycle;Signal;HPM_P1;HPM_P2
2023/11/26 00:01:30;;;;;;;66.30;40.10;;;;;;;0.19;100.00;98815.33;107996;1254;71636;-67
2023/11/26 00:03:58;;;;;;;67.10;41.70;;;;;;;0.18;100.00;98814.64;108000;1254;72882;-66
2023/11/26 00:06:30;;;;;;;70.40;43.20;;;;;;;0.14;100.00;98814.88;108007;1254;60242;-67
2023/11/26 00:08:58;;;;;;;72.00;43.30;;;;;;;0.11;100.00;98819.22;108129;1254;60389;-66
2023/11/26 00:11:26;;;;;;;70.20;44.50;;;;;;;0.12;100.00;98823.67;108088;1253;72905;-67
2023/11/26 00:13:53;;;;;;;68.70;42.30;;;;;;;0.16;100.00;98823.20;108082;1254;72688;-68
2023/11/26 00:16:21;;;;;;;69.70;44.70;;;;;;;0.18;100.00;98826.77;108213;1254;71393;-68
2023/11/26 00:18:49;;;;;;;73.90;45.40;;;;;;;0.20;100.00;98823.29;108082;1254;60348;-67
2023/11/26 00:21:17;;;;;;;70.40;43.20;;;;;;;0.23;100.00;98833.59;108134;1254;60482;-68
2023/11/26 00:23:44;;;;;;;64.10;40.10;;;;;;;0.28;100.00;98834.93;108142;1254;73853;-67
2023/11/26 00:26:12;;;;;;;70.90;41.50;;;;;;;0.31;100.00;98827.08;108093;1254;72505;-67
2023/11/26 00:28:41;;;;;;;64.50;40.90;;;;;;;0.33;100.00;98826.54;107999;1256;73356;-68
2023/11/26 00:31:09;;;;;;;65.40;41.30;;;;;;;0.34;100.00;98827.87;108105;1257;60357;-69
2023/11/26 00:33:36;;;;;;;65.60;41.50;;;;;;;0.35;100.00;98828.37;108131;1254;60326;-67
2023/11/26 00:36:04;;;;;;;71.40;43.40;;;;;;;0.37;100.00;98831.39;108114;1254;72581;-67
2023/11/26 00:38:32;;;;;;;68.50;43.50;;;;;;;0.39;100.00;98823.98;108159;1254;72818;-67
2023/11/26 00:40:59;;;;;;;71.00;44.60;;;;;;;0.41;100.00;98819.77;108155;1254;72494;-67
2023/11/26 00:43:27;;;;;;;73.00;43.70;;;;;;;0.41;100.00;98824.92;108156;1254;60951;-67
2023/11/26 00:45:55;;;;;;;71.70;42.80;;;;;;;0.41;100.00;98826.49;108041;1252;60380;-67
2023/11/26 00:48:23;;;;;;;66.80;40.60;;;;;;;0.39;100.00;98826.18;108046;1254;73778;-67
2023/11/26 00:50:50;;;;;;;65.50;39.10;;;;;;;0.36;100.00;98820.95;108162;1254;71953;-68
2023/11/26 00:53:18;;;;;;;65.20;41.20;;;;;;;0.34;100.00;98816.95;108081;1254;71166;-67
2023/11/26 00:55:48;;;;;;;59.40;37.30;;;;;;;0.32;100.00;98811.02;108136;1254;60460;-67
2023/11/26 00:58:20;;;;;;;60.40;36.10;;;;;;;0.27;100.00;98805.67;108243;1254;60041;-67
2023/11/26 01:00:48;;;;;;;57.40;35.60;;;;;;;0.21;100.00;98803.35;108112;1254;71693;-67
2023/11/26 01:03:16;;;;;;;56.20;35.90;;;;;;;0.14;100.00;98793.62;107994;1254;71609;-67
2023/11/26 01:05:43;;;;;;;58.40;37.30;;;;;;;0.10;100.00;98791.21;108118;1254;71282;-67
2023/11/26 01:08:11;;;;;;;57.00;35.70;;;;;;;0.07;100.00;98783.64;108106;1254;60404;-67
2023/11/26 01:10:39;;;;;;;60.00;36.60;;;;;;;0.02;100.00;98777.91;108056;1254;60428;-67
2023/11/26 01:13:06;;;;;;;58.60;34.30;;;;;;;-0.03;100.00;98773.48;108070;1259;73712;-67
2023/11/26 01:15:35;;;;;;;56.20;33.30;;;;;;;-0.06;100.00;98771.02;108141;1254;72736;-67
2023/11/26 01:18:04;;;;;;;59.60;33.50;;;;;;;-0.07;100.00;98768.91;108127;1254;71289;-67
2023/11/26 01:20:32;;;;;;;54.40;32.40;;;;;;;-0.12;100.00;98772.29;108027;1254;60313;-67
2023/11/26 01:23:00;;;;;;;51.10;30.50;;;;;;;-0.16;100.00;98783.19;108113;1256;60985;-67
2023/11/26 01:25:28;;;;;;;49.20;30.00;;;;;;;-0.18;100.00;98787.13;108119;1253;73998;-67
2023/11/26 01:27:55;;;;;;;49.60;30.60;;;;;;;-0.21;100.00;98790.41;108081;1254;71410;-67
2023/11/26 01:30:23;;;;;;;50.80;31.20;;;;;;;-0.24;100.00;98794.30;108107;1254;71405;-68
2023/11/26 01:32:50;;;;;;;52.60;30.70;;;;;;;-0.27;100.00;98798.74;108144;1254;61075;-67
2023/11/26 01:35:18;;;;;;;47.90;29.80;;;;;;;-0.28;100.00;98802.48;108021;1254;59995;-67
2023/11/26 01:37:48;;;;;;;43.80;28.10;;;;;;;-0.27;100.00;98793.17;108106;1254;72566;-67
2023/11/26 01:40:17;;;;;;;41.10;26.90;;;;;;;-0.25;100.00;98785.35;108116;1254;72872;-67
2023/11/26 01:42:44;;;;;;;43.90;26.80;;;;;;;-0.25;100.00;98783.46;108083;1256;73185;-67
2023/11/26 01:45:12;;;;;;;41.10;26.20;;;;;;;-0.25;100.00;98784.67;107967;1254;60900;-67
2023/11/26 01:47:40;;;;;;;43.60;27.20;;;;;;;-0.25;100.00;98786.03;108086;1254;60868;-67
2023/11/26 01:50:09;;;;;;;44.00;28.20;;;;;;;-0.25;100.00;98785.60;108139;1253;73867;-67
2023/11/26 01:52:38;;;;;;;44.90;27.90;;;;;;;-0.23;100.00;98786.90;108143;1254;71482;-67
2023/11/26 01:55:10;;;;;;;48.40;29.00;;;;;;;-0.22;100.00;98780.59;108125;1256;72737;-66
2023/11/26 01:57:39;;;;;;;46.80;28.70;;;;;;;-0.22;100.00;98775.55;107922;1257;61117;-66
2023/11/26 02:00:08;;;;;;;48.40;29.50;;;;;;;-0.22;100.00;98767.30;108097;1254;60442;-67
2023/11/26 02:02:40;;;;;;;;;;;;;;;-0.25;100.00;98765.73;108179;1253;73072;-67
2023/11/26 02:05:11;;;;;;;49.50;29.50;;;;;;;-0.27;100.00;98759.11;108176;1254;71575;-66
2023/11/26 02:07:39;;;;;;;48.40;28.70;;;;;;;-0.30;100.00;98751.29;108133;1254;71814;-67
2023/11/26 02:10:07;;;;;;;45.90;28.10;;;;;;;-0.31;100.00;98749.95;108090;1253;61161;-67
2023/11/26 02:12:35;;;;;;;44.20;27.80;;;;;;;-0.34;100.00;98742.09;108074;1253;60131;-68
2023/11/26 02:15:03;;;;;;;44.40;29.30;;;;;;;-0.38;100.00;98731.50;108137;1254;74671;-67
2023/11/26 02:17:31;;;;;;;49.30;29.10;;;;;;;-0.40;100.00;98730.66;108213;1254;72520;-68
2023/11/26 02:20:01;;;;;;;47.80;28.80;;;;;;;-0.41;100.00;98729.17;108018;1254;71213;-66
2023/11/26 02:22:29;;;;;;;44.80;28.70;;;;;;;-0.42;100.00;98726.49;108158;1256;60929;-69
2023/11/26 02:24:58;;;;;;;47.00;29.50;;;;;;;-0.41;100.00;98722.52;108200;1254;61197;-67
2023/11/26 02:27:25;;;;;;;47.00;26.90;;;;;;;-0.39;100.00;98719.41;108162;1254;73452;-68
2023/11/26 02:29:53;;;;;;;45.10;28.20;;;;;;;-0.37;100.00;98711.15;108137;1258;72680;-66
2023/11/26 02:32:21;;;;;;;45.30;27.60;;;;;;;-0.34;100.00;98708.29;108098;1255;71276;-67
2023/11/26 02:34:49;;;;;;;50.50;29.10;;;;;;;-0.32;100.00;98705.20;107980;1255;61212;-67
2023/11/26 02:37:17;;;;;;;44.90;28.00;;;;;;;-0.31;100.00;98703.69;108176;1254;61175;-68
2023/11/26 02:39:44;;;;;;;47.70;28.60;;;;;;;-0.32;100.00;98698.42;108066;1254;74607;-68
2023/11/26 02:42:12;;;;;;;46.80;29.30;;;;;;;-0.32;100.00;98695.96;108161;1254;71100;-67
2023/11/26 02:44:40;;;;;;;46.50;28.10;;;;;;;-0.31;100.00;98691.30;108075;1254;71270;-68
2023/11/26 02:47:07;;;;;;;46.50;28.60;;;;;;;-0.31;100.00;98691.19;108136;1254;61259;-68
2023/11/26 02:49:35;;;;;;;43.10;27.60;;;;;;;-0.31;100.00;98691.70;108018;1259;61721;-68
2023/11/26 02:52:03;;;;;;;42.90;28.10;;;;;;;-0.30;100.00;98685.44;108010;1254;73428;-68
2023/11/26 02:54:31;;;;;;;42.30;26.70;;;;;;;-0.31;100.00;98683.32;108131;1254;72752;-67
2023/11/26 02:56:59;;;;;;;45.50;26.20;;;;;;;-0.31;100.00;98681.06;108084;1257;72739;-68
2023/11/26 02:59:27;;;;;;;45.10;26.50;;;;;;;-0.32;100.00;98674.81;108007;1253;61326;-67
2023/11/26 03:01:57;;;;;;;44.80;26.60;;;;;;;-0.32;100.00;98665.02;108114;1254;61146;-67
2023/11/26 03:04:26;;;;;;;43.80;27.10;;;;;;;-0.31;100.00;98663.86;108049;1254;74703;-67
2023/11/26 03:06:57;;;;;;;42.60;25.50;;;;;;;-0.31;100.00;98661.08;108228;1254;71544;-67
2023/11/26 03:14:54;;;;;;;44.80;26.10;;;;;;;-0.24;100.00;98661.80;107974;1254;61135;-68
2023/11/26 03:17:22;;;;;;;40.20;25.70;;;;;;;-0.20;100.00;98668.62;108041;1254;74644;-67
2023/11/26 03:19:50;;;;;;;38.90;24.70;;;;;;;-0.16;100.00;98671.03;107999;1254;71709;-67
2023/11/26 03:22:18;;;;;;;43.90;25.30;;;;;;;-0.12;100.00;98673.77;107973;1254;71550;-67
2023/11/26 03:24:46;;;;;;;39.90;24.60;;;;;;;-0.07;100.00;98675.41;108029;1254;62817;-67
2023/11/26 03:27:14;;;;;;;35.70;22.40;;;;;;;-0.01;100.00;98677.66;108036;1254;61067;-68
2023/11/26 03:29:42;;;;;;;37.70;22.40;;;;;;;0.03;100.00;98681.56;108206;1254;74643;-69
2023/11/26 03:32:09;;;;;;;38.70;23.40;;;;;;;0.05;100.00;98679.66;107879;1254;72765;-68
2023/11/26 03:34:37;;;;;;;36.40;22.60;;;;;;;0.07;100.00;98672.04;108128;1256;72730;-68
2023/11/26 03:37:05;;;;;;;35.40;22.10;;;;;;;0.09;100.00;98664.30;108058;1254;61010;-69
2023/11/26 03:39:40;;;;;;;35.40;22.00;;;;;;;0.12;100.00;98661.64;108092;1253;60040;-68
2023/11/26 03:42:08;;;;;;;37.10;22.90;;;;;;;0.16;100.00;98655.81;108079;1254;74600;-66
2023/11/26 03:44:49;;;;;;;36.90;21.40;;;;;;;0.21;100.00;98662.05;108077;1259;72838;-66
2023/11/26 03:47:18;;;;;;;37.60;22.50;;;;;;;0.24;100.00;98667.19;108146;1253;72648;-67
2023/11/26 03:49:47;;;;;;;32.60;20.80;;;;;;;0.27;100.00;98666.86;108150;1256;60011;-68
2023/11/26 03:52:15;;;;;;;34.80;20.80;;;;;;;0.31;100.00;98662.21;108165;1254;61464;-67
2023/11/26 03:54:43;;;;;;;32.30;20.70;;;;;;;0.34;100.00;98672.04;108079;1254;74680;-68
2023/11/26 03:57:11;;;;;;;36.20;22.50;;;;;;;0.37;100.00;98684.86;108154;1254;72721;-68
2023/11/26 03:59:43;;;;;;;32.80;21.70;;;;;;;0.40;100.00;98689.43;107982;1254;71401;-68
2023/11/26 04:02:10;;;;;;;41.80;22.90;;;;;;;0.44;100.00;98693.54;108193;1254;61224;-66
2023/11/26 04:04:38;;;;;;;38.40;22.80;;;;;;;0.47;100.00;98698.16;107975;1254;60177;-69
2023/11/26 04:07:07;;;;;;;43.50;24.70;;;;;;;0.47;100.00;98699.90;108049;1254;73475;-66
2023/11/26 04:09:35;;;;;;;41.50;23.10;;;;;;;0.44;100.00;98694.39;108106;1254;72712;-67
2023/11/26 04:12:03;;;;;;;35.70;21.70;;;;;;;0.40;100.00;98694.10;108215;1254;72687;-68
2023/11/26 04:14:31;;;;;;;32.20;20.70;;;;;;;0.34;100.00;98691.14;108106;1254;61164;-66
2023/11/26 04:16:59;;;;;;;33.40;20.60;;;;;;;0.26;100.00;98680.94;108109;1253;61409;-68
2023/11/26 04:19:27;;;;;;;31.60;19.60;;;;;;;0.19;100.00;98680.91;108161;1259;74611;-67
2023/11/26 04:21:55;;;;;;;31.80;19.60;;;;;;;0.12;100.00;98681.27;108133;1254;71556;-68
2023/11/26 04:24:23;;;;;;;31.40;19.10;;;;;;;0.05;100.00;98677.77;108040;1254;72667;-68
2023/11/26 04:26:51;;;;;;;34.80;21.90;;;;;;;0.01;100.00;98676.70;108048;1254;61216;-68
2023/11/26 04:29:19;;;;;;;36.70;21.90;;;;;;;-0.03;100.00;98673.63;108017;1254;61144;-66
2023/11/26 04:31:47;;;;;;;34.60;22.00;;;;;;;-0.06;100.00;98675.58;108138;1254;74666;-67
2023/11/26 04:34:14;;;;;;;35.00;21.60;;;;;;;-0.09;100.00;98675.89;108122;1254;72608;-68
2023/11/26 04:36:42;;;;;;;34.00;21.60;;;;;;;-0.11;100.00;98679.04;108096;1259;72935;-67
2023/11/26 04:39:11;;;;;;;34.10;21.90;;;;;;;-0.15;100.00;98677.66;108076;1253;61168;-68
2023/11/26 04:41:40;;;;;;;34.60;22.20;;;;;;;-0.17;100.00;98675.61;108082;1253;61104;-68
2023/11/26 04:44:08;;;;;;;36.40;20.90;;;;;;;-0.19;100.00;98674.27;108129;1254;74716;-67
2023/11/26 04:46:36;;;;;;;37.80;23.30;;;;;;;-0.19;100.00;98676.22;107987;1254;212625;-68
2023/11/26 04:49:03;;;;;;;36.90;23.40;;;;;;;-0.16;100.00;98682.83;108130;1257;72701;-67
2023/11/26 04:51:35;;;;;;;35.50;23.10;;;;;;;-0.15;100.00;98684.86;108106;1254;61207;-68
2023/11/26 04:54:05;;;;;;;36.00;22.90;;;;;;;-0.13;100.00;98684.77;108143;1253;61204;-67
2023/11/26 04:56:36;;;;;;;36.60;21.40;;;;;;;-0.10;100.00;98685.84;108039;1254;74633;-69
2023/11/26 04:59:04;;;;;;;37.10;22.80;;;;;;;-0.09;100.00;98681.55;108073;1254;72616;-67
2023/11/26 05:01:32;;;;;;;37.30;23.20;;;;;;;-0.08;100.00;98675.22;108068;1254;71689;-68
2023/11/26 05:03:59;;;;;;;37.60;22.50;;;;;;;-0.07;100.00;98672.81;108142;1253;61100;-67
2023/11/26 05:06:27;;;;;;;33.00;21.20;;;;;;;-0.07;100.00;98669.10;108197;1254;61138;-68
2023/11/26 05:08:55;;;;;;;34.40;21.00;;;;;;;-0.07;100.00;98674.19;108126;1254;74635;-68
2023/11/26 05:11:23;;;;;;;34.40;20.70;;;;;;;-0.07;100.00;98679.96;108176;1254;72742;-67
2023/11/26 05:13:51;;;;;;;34.20;20.30;;;;;;;-0.06;100.00;98681.13;108105;1256;72700;-67
2023/11/26 05:16:19;;;;;;;37.70;22.60;;;;;;;-0.07;100.00;98673.70;108188;1252;61102;-67
2023/11/26 05:18:47;;;;;;;31.00;21.00;;;;;;;-0.09;100.00;98666.45;108115;1252;61256;-67
2023/11/26 05:21:15;;;;;;;34.60;21.30;;;;;;;-0.10;100.00;98667.88;108127;1254;73654;-67
2023/11/26 05:23:43;;;;;;;36.20;22.10;;;;;;;-0.11;100.00;98673.91;108141;1254;71114;-68
2023/11/26 05:26:14;;;;;;;33.60;21.70;;;;;;;-0.13;100.00;98675.13;108076;1257;73233;-67
2023/11/26 05:28:42;;;;;;;31.30;19.90;;;;;;;-0.13;100.00;98676.39;108045;1257;61175;-67
2023/11/26 05:31:11;;;;;;;32.80;20.80;;;;;;;-0.13;100.00;98675.69;107997;1254;62623;-67
2023/11/26 05:33:39;;;;;;;35.10;22.50;;;;;;;-0.12;100.00;98679.59;108092;1254;73505;-68
2023/11/26 05:36:07;;;;;;;37.60;23.00;;;;;;;-0.12;100.00;98677.09;108230;1254;72793;-67
2023/11/26 05:38:35;;;;;;;34.70;21.20;;;;;;;-0.10;100.00;98676.43;108503;1254;72531;-67
2023/11/26 05:41:03;;;;;;;35.20;22.20;;;;;;;-0.09;100.00;98681.18;108042;1255;61151;-67
2023/11/26 05:43:33;;;;;;;36.90;23.00;;;;;;;-0.08;100.00;98683.30;108131;1254;61106;-67
2023/11/26 05:46:01;;;;;;;36.90;22.40;;;;;;;-0.06;100.00;98686.13;108063;1254;73451;-68
2023/11/26 05:48:29;;;;;;;34.50;21.80;;;;;;;-0.05;100.00;98685.83;108039;1254;72718;-68
2023/11/26 05:50:57;;;;;;;35.00;21.60;;;;;;;-0.05;100.00;98682.36;107985;1254;72460;-69
2023/11/26 05:53:25;;;;;;;31.30;20.50;;;;;;;-0.05;100.00;98680.94;108187;1258;61265;-68
2023/11/26 05:55:53;;;;;;;30.00;20.20;;;;;;;-0.04;100.00;98675.71;108066;1254;61150;-67
2023/11/26 05:58:21;;;;;;;31.50;19.00;;;;;;;-0.02;100.00;98671.66;107965;1254;74678;-68
2023/11/26 06:00:48;;;;;;;32.30;20.60;;;;;;;-0.00;100.00;98668.65;107986;1254;71442;-68
2023/11/26 06:03:25;;;;;;;34.80;20.60;;;;;;;0.01;100.00;98668.77;108133;1257;71480;-68
2023/11/26 06:05:55;;;;;;;31.00;20.40;;;;;;;0.05;100.00;98670.20;108058;1254;61129;-68
2023/11/26 06:08:30;;;;;;;29.60;19.20;;;;;;;0.08;100.00;98666.07;107989;1254;62381;-67
2023/11/26 06:11:09;;;;;;;;;;;;;;;0.09;100.00;98668.04;108084;1254;73710;-68
2023/11/26 06:13:56;;;;;;;28.50;18.30;;;;;;;0.12;100.00;98667.67;108038;1254;74989;-68
2023/11/26 06:16:35;;;;;;;31.50;19.10;;;;;;;0.12;100.00;98667.98;108023;1259;72496;-68
2023/11/26 06:19:12;;;;;;;29.20;19.50;;;;;;;0.12;100.00;98671.49;108199;1254;61142;-68
2023/11/26 06:22:03;;;;;;;29.80;19.10;;;;;;;0.13;100.00;98678.46;108305;1252;61136;-69
2023/11/26 06:24:40;;;;;;;29.40;19.80;;;;;;;0.14;100.00;98683.36;108006;1254;75465;-68
2023/11/26 06:27:10;;;;;;;34.40;20.10;;;;;;;0.17;100.00;98682.13;108127;1254;72493;-68
2023/11/26 06:29:42;;;;;;;32.40;19.80;;;;;;;0.19;100.00;98681.11;108044;1254;72591;-67
2023/11/26 06:32:19;;;;;;;33.30;21.40;;;;;;;0.21;100.00;98680.42;108115;1257;63014;-68
2023/11/26 06:35:06;;;;;;;32.80;21.00;;;;;;;0.25;100.00;98677.40;108056;1254;61264;-68
2023/11/26 06:37:35;;;;;;;31.60;20.00;;;;;;;0.29;100.00;98673.20;108033;1254;76623;-68
2023/11/26 06:40:05;;;;;;;32.50;20.30;;;;;;;0.30;100.00;98668.77;108061;1254;71136;-68
2023/11/26 06:42:41;;;;;;;32.10;19.30;;;;;;;0.31;100.00;98667.41;108032;1254;75348;-68
2023/11/26 06:45:10;;;;;;;30.10;19.60;;;;;;;0.30;100.00;98663.27;108015;1254;61421;-69
2023/11/26 06:47:38;;;;;;;37.40;22.30;;;;;;;0.30;100.00;98669.58;108143;1254;60489;-68
2023/11/26 06:50:07;;;;;;;31.80;20.20;;;;;;;0.30;100.00;98665.35;108069;1260;74633;-67
2023/11/26 06:52:39;;;;;;;33.50;21.00;;;;;;;0.30;100.00;98660.85;108118;1254;71512;-68
2023/11/26 06:55:12;;;;;;;34.20;20.70;;;;;;;0.34;100.00;98656.43;108124;1254;72650;-68
2023/11/26 06:57:41;;;;;;;36.20;21.40;;;;;;;0.36;100.00;98651.88;108055;1254;61237;-68
2023/11/26 07:00:11;;;;;;;32.50;21.10;;;;;;;0.38;100.00;98651.41;108059;1254;61158;-67
2023/11/26 07:02:41;;;;;;;32.10;20.40;;;;;;;0.41;100.00;98644.80;108080;1254;74687;-67
2023/11/26 07:05:12;;;;;;;32.50;21.00;;;;;;;0.45;100.00;98643.23;108066;1254;71472;-67
2023/11/26 07:08:21;;;;;;;33.80;20.90;;;;;;;0.52;100.00;98638.04;108036;1254;72959;-68
2023/11/26 07:10:48;;;;;;;32.20;19.90;;;;;;;0.56;100.00;98634.80;108162;1254;61307;-68
2023/11/26 07:13:16;;;;;;;30.90;21.00;;;;;;;0.58;100.00;98629.09;108189;1254;61147;-67
2023/11/26 07:15:44;;;;;;;33.30;20.90;;;;;;;0.60;100.00;98627.56;108153;1254;73508;-68
2023/11/26 07:18:12;;;;;;;33.70;21.80;;;;;;;0.60;100.00;98626.20;108120;1254;71550;-70
2023/11/26 07:20:40;;;;;;;32.70;19.60;;;;;;;0.60;100.00;98620.63;108130;1259;70997;-67
2023/11/26 07:23:08;;;;;;;33.20;20.40;;;;;;;0.61;100.00;98613.07;108017;1257;61155;-67
2023/11/26 07:25:39;;;;;;;30.80;19.90;;;;;;;0.63;100.00;98611.42;108257;1254;61163;-67
2023/11/26 07:28:11;;;;;;;31.30;20.30;;;;;;;0.64;100.00;98609.86;108029;1254;74634;-67
2023/11/26 07:30:39;;;;;;;32.20;20.50;;;;;;;0.65;100.00;98609.52;108150;1254;72515;-67
2023/11/26 07:33:06;;;;;;;31.10;19.10;;;;;;;0.69;100.00;98613.67;107955;1257;72478;-67
2023/11/26 07:35:37;;;;;;;32.70;20.60;;;;;;;0.71;99.93;98611.80;107976;1257;59679;-68
2023/11/26 07:38:08;;;;;;;31.00;18.70;;;;;;;0.73;99.15;98611.24;108113;1254;60586;-68
2023/11/26 07:40:36;;;;;;;28.30;18.20;;;;;;;0.73;98.88;98605.25;108143;1254;73450;-68
2023/11/26 07:43:04;;;;;;;29.80;19.00;;;;;;;0.73;98.44;98597.12;108033;1254;72136;-67
2023/11/26 07:45:32;;;;;;;26.40;17.40;;;;;;;0.74;97.96;98595.81;108168;1258;72684;-67
2023/11/26 07:48:00;;;;;;;28.50;18.90;;;;;;;0.76;97.75;98594.05;108076;1254;60897;-68
2023/11/26 07:50:27;;;;;;;27.60;17.60;;;;;;;0.79;97.61;98593.32;107983;1254;61293;-67
2023/11/26 07:52:55;;;;;;;27.70;18.70;;;;;;;0.84;97.48;98590.55;108079;1254;74742;-68
2023/11/26 07:55:22;;;;;;;27.20;17.90;;;;;;;0.90;97.20;98594.73;108045;1254;72686;-68
2023/11/26 07:57:51;;;;;;;26.40;18.50;;;;;;;0.95;96.72;98595.90;108113;1254;72549;-68
2023/11/26 08:00:22;;;;;;;26.90;18.80;;;;;;;1.00;96.11;98597.13;108053;1257;61305;-67
2023/11/26 08:02:49;;;;;;;29.40;18.50;;;;;;;1.04;95.72;98596.86;108150;1254;61135;-66
2023/11/26 08:05:18;;;;;;;26.70;17.70;;;;;;;1.08;95.12;98599.23;108108;1254;74657;-66
2023/11/26 08:07:46;;;;;;;29.10;18.10;;;;;;;1.10;94.59;98588.96;108164;1254;71587;-70
2023/11/26 08:10:26;;;;;;;28.20;17.90;;;;;;;1.12;93.74;98585.20;107985;1254;72691;-69
2023/11/26 08:12:53;;;;;;;26.50;17.40;;;;;;;1.13;93.41;98584.15;108068;1252;61628;-67
2023/11/26 08:15:23;;;;;;;26.50;17.60;;;;;;;1.12;92.56;98583.36;108019;1253;61151;-67
2023/11/26 08:17:51;;;;;;;28.20;17.10;;;;;;;1.14;92.12;98586.17;108009;1254;76166;-67
2023/11/26 08:20:18;;;;;;;26.10;15.20;;;;;;;1.16;91.33;98585.04;108051;1254;72686;-67
2023/11/26 08:22:51;;;;;;;24.40;16.60;;;;;;;1.16;90.60;98580.35;108131;1257;70505;-67
2023/11/26 08:25:23;;;;;;;25.10;16.00;;;;;;;1.16;89.94;98580.63;108036;1254;61187;-67
2023/11/26 08:27:51;;;;;;;23.20;16.00;;;;;;;1.17;89.54;98578.05;107948;1255;60438;-67
2023/11/26 08:30:31;;;;;;;22.60;14.70;;;;;;;1.19;89.15;98577.92;108084;1259;74758;-70
2023/11/26 08:33:00;;;;;;;25.20;15.20;;;;;;;1.22;88.64;98573.80;108110;1259;71936;-68
2023/11/26 08:35:32;;;;;;;24.30;14.90;;;;;;;1.23;88.07;98564.39;108157;1260;72265;-68
2023/11/26 08:38:01;;;;;;;;;;;;;;;1.24;87.91;98569.50;108108;1254;61258;-68
2023/11/26 08:40:33;;;;;;;25.50;16.40;;;;;;;1.25;87.63;98575.82;108140;1254;61267;-69
2023/11/26 08:43:02;;;;;;;26.20;16.00;;;;;;;1.26;87.38;98572.48;108099;1255;74704;-67
2023/11/26 08:45:30;;;;;;;26.10;15.60;;;;;;;1.27;87.12;98560.23;108093;1254;72766;-68
2023/11/26 08:47:59;;;;;;;23.90;14.20;;;;;;;1.30;87.27;98555.16;107982;1254;72793;-67
2023/11/26 08:50:27;;;;;;;23.10;14.80;;;;;;;1.32;86.83;98553.73;108040;1259;59947;-67
2023/11/26 08:52:55;;;;;;;23.00;15.00;;;;;;;1.35;86.44;98552.95;108043;1254;60023;-70
2023/11/26 08:55:23;;;;;;;25.10;15.40;;;;;;;1.37;85.97;98550.14;108166;1260;74760;-67
2023/11/26 08:57:50;;;;;;;22.50;14.40;;;;;;;1.37;85.89;98541.46;108197;1252;71632;-68
2023/11/26 09:00:20;;;;;;;21.90;13.00;;;;;;;1.38;85.47;98531.34;108090;1254;71850;-67
2023/11/26 09:02:48;;;;;;;23.80;14.20;;;;;;;1.40;85.12;98520.98;108118;1256;61163;-67
2023/11/26 09:05:15;;;;;;;23.00;14.60;;;;;;;1.42;84.40;98502.22;108033;1253;61205;-67
2023/11/26 09:07:45;;;;;;;24.20;14.70;;;;;;;1.42;84.29;98496.92;108071;1255;73388;-68
2023/11/26 09:10:13;;;;;;;20.20;13.50;;;;;;;1.40;83.80;98488.58;108051;1255;72264;-66
2023/11/26 09:12:41;;;;;;;24.50;14.50;;;;;;;1.40;83.73;98484.89;108024;1255;71403;-66
2023/11/26 09:15:10;;;;;;;23.10;14.70;;;;;;;1.40;83.47;98475.59;108093;1256;61215;-67
2023/11/26 09:17:38;;;;;;;21.50;13.90;;;;;;;1.41;83.60;98467.44;108155;1260;61145;-68
2023/11/26 09:20:12;;;;;;;22.00;14.00;;;;;;;1.42;83.47;98459.73;108191;1254;74693;-66
2023/11/26 09:22:40;;;;;;;23.50;13.80;;;;;;;1.42;83.23;98458.03;108077;1254;72876;-67
2023/11/26 09:25:08;;;;;;;22.60;14.50;;;;;;;1.42;83.40;98451.83;108132;1259;72759;-65
2023/11/26 09:27:36;;;;;;;23.60;13.90;;;;;;;1.44;83.36;98454.83;108150;1258;61148;-69
2023/11/26 09:30:04;;;;;;;21.80;13.70;;;;;;;1.44;83.00;98447.30;108140;1253;61137;-67
2023/11/26 09:32:33;;;;;;;18.80;12.90;;;;;;;1.45;82.94;98445.86;108135;1254;74607;-68
2023/11/26 09:35:01;;;;;;;19.10;12.90;;;;;;;1.47;82.92;98437.92;108151;1254;72714;-68
2023/11/26 09:37:29;;;;;;;21.10;13.20;;;;;;;1.47;82.50;98426.88;108144;1258;72696;-65
2023/11/26 09:39:57;;;;;;;19.60;12.00;;;;;;;1.47;82.19;98411.98;108122;1254;61103;-66
2023/11/26 09:42:25;;;;;;;22.10;12.30;;;;;;;1.46;81.97;98405.36;108030;1254;61282;-66
2023/11/26 09:44:53;;;;;;;18.90;11.70;;;;;;;1.46;81.86;98401.89;108173;1259;74648;-67
2023/11/26 09:47:20;;;;;;;20.30;12.70;;;;;;;1.46;81.57;98401.46;108117;1260;72676;-66
2023/11/26 09:49:49;;;;;;;19.00;12.30;;;;;;;1.45;81.55;98393.98;107999;1255;72714;-67
2023/11/26 09:52:17;;;;;;;17.60;11.10;;;;;;;1.45;81.52;98386.63;108122;1258;61333;-67
2023/11/26 09:54:44;;;;;;;20.00;11.90;;;;;;;1.46;81.48;98378.10;108031;1260;61014;-68
2023/11/26 09:57:13;;;;;;;19.00;12.10;;;;;;;1.44;81.54;98371.29;108085;1253;73438;-67
2023/11/26 09:59:41;;;;;;;20.50;12.60;;;;;;;1.44;81.48;98362.66;108179;1254;72500;-67
2023/11/26 10:02:12;;;;;;;20.90;12.80;;;;;;;1.44;81.87;98358.02;108199;1254;70749;-68
2023/11/26 10:04:47;;;;;;;18.50;11.90;;;;;;;1.44;81.90;98352.30;108101;1254;61110;-69
2023/11/26 10:07:16;;;;;;;16.40;10.60;;;;;;;1.45;82.24;98349.27;108174;1253;61189;-67
2023/11/26 10:10:02;;;;;;;17.80;11.60;;;;;;;1.48;82.24;98339.91;108186;1254;73781;-67
2023/11/26 10:12:30;;;;;;;19.20;11.90;;;;;;;1.52;82.52;98335.69;108142;1255;71790;-65
2023/11/26 10:15:06;;;;;;;19.00;12.00;;;;;;;1.55;82.63;98334.29;107975;1254;72508;-65
2023/11/26 10:17:34;;;;;;;19.10;11.60;;;;;;;1.57;82.44;98330.77;108077;1254;61211;-66
2023/11/26 10:20:18;;;;;;;18.20;10.80;;;;;;;1.59;81.99;98328.33;108050;1254;61322;-66
2023/11/26 10:22:46;;;;;;;16.60;10.90;;;;;;;1.62;81.75;98324.39;108139;1254;74652;-67
2023/11/26 10:25:14;;;;;;;15.70;10.60;;;;;;;1.64;81.31;98318.82;108144;1254;71573;-67
2023/11/26 10:27:43;;;;;;;16.40;10.40;;;;;;;1.67;80.86;98315.79;108094;1254;72723;-68
2023/11/26 10:30:43;;;;;;;15.40;9.90;;;;;;;1.66;80.02;98316.20;108033;1254;61028;-67
2023/11/26 10:33:20;;;;;;;16.60;10.10;;;;;;;1.66;79.71;98310.05;107939;1259;61157;-68
2023/11/26 10:36:05;;;;;;;14.30;8.70;;;;;;;1.68;79.18;98309.27;108014;1254;74931;-65
2023/11/26 10:38:41;;;;;;;14.40;9.50;;;;;;;1.70;78.57;98308.38;108212;1254;74813;-67
2023/11/26 10:41:40;;;;;;;13.50;9.20;;;;;;;1.71;78.12;98314.83;107915;1255;72964;-67
2023/11/26 10:44:24;;;;;;;14.90;9.00;;;;;;;1.72;77.69;98312.98;108118;1254;61092;-67
2023/11/26 10:47:00;;;;;;;13.90;9.40;;;;;;;1.72;76.87;98322.41;108006;1253;61103;-67
2023/11/26 10:49:32;;;;;;;14.10;8.30;;;;;;;1.73;76.90;98328.14;108025;1254;75264;-66
2023/11/26 10:52:06;;;;;;;14.50;9.10;;;;;;;1.73;76.37;98328.94;108169;1254;72723;-68
2023/11/26 10:54:43;;;;;;;13.80;8.30;;;;;;;1.73;76.08;98337.77;108122;1254;72724;-66
2023/11/26 10:57:25;;;;;;;17.30;9.70;;;;;;;1.73;75.92;98331.56;108225;1254;61269;-65
2023/11/26 10:59:54;;;;;;;14.00;8.40;;;;;;;1.72;75.77;98332.20;108167;1254;61243;-67
2023/11/26 11:02:21;;;;;;;16.70;9.00;;;;;;;1.70;75.36;98339.76;108108;1254;74791;-67
2023/11/26 11:04:49;;;;;;;14.30;8.60;;;;;;;1.68;75.19;98339.48;108076;1254;71592;-67
2023/11/26 11:07:17;;;;;;;13.40;8.40;;;;;;;1.67;75.09;98334.11;108157;1254;71469;-67
2023/11/26 11:10:06;;;;;;;14.60;8.20;;;;;;;1.66;74.96;98327.73;108087;1254;61120;-67
2023/11/26 11:13:01;;;;;;;13.80;7.80;;;;;;;1.65;75.04;98320.15;108146;1253;61094;-66
2023/11/26 11:15:29;;;;;;;12.60;7.50;;;;;;;1.63;74.74;98318.66;108061;1254;73437;-66
2023/11/26 11:17:57;;;;;;;14.30;8.00;;;;;;;1.61;74.51;98317.13;108151;1260;71605;-66
2023/11/26 11:21:06;;;;;;;11.00;6.80;;;;;;;1.59;74.22;98325.84;108025;1255;74776;-67
2023/11/26 11:23:38;;;;;;;13.40;7.50;;;;;;;1.59;73.99;98328.00;108011;1254;61193;-67
2023/11/26 11:26:09;;;;;;;12.70;7.80;;;;;;;1.60;73.62;98332.58;108085;1254;61169;-67
2023/11/26 11:28:47;;;;;;;14.50;7.90;;;;;;;1.61;73.90;98328.55;108136;1254;74567;-66
2023/11/26 11:31:41;;;;;;;12.10;6.50;;;;;;;1.62;73.72;98320.23;108088;1254;72729;-66